Time;durP1;ratioP1;P1;durP2;ratioP2;P2;SDS_P1;SDS_P2;PMS_P1;PMS_P2;Temp;Humidity;BMP_temperature;BMP_pressure;BME280_temperature;BME280_humidity;BME280_pressure;Samples;Min_cycle;Max_cycle;Signal;HPM_P1;HPM_P2
2023/10/29 00:01:00;;;;;;;7.50;4.25;;;10.80;99.90;;;;;;5055232;28;20040;-76
2023/10/29 00:03:26;;;;;;;9.10;4.95;;;10.80;99.90;;;;;;5053952;28;20478;-76
2023/10/29 00:05:52;;;;;;;10.43;5.18;;;10.70;99.90;;;;;;5054598;28;20048;-77
2023/10/29 00:08:18;;;;;;;8.55;4.95;;;10.80;99.90;;;;;;5054534;28;20111;-78
2023/10/29 00:10:44;;;;;;;9.07;5.43;;;10.70;99.90;;;;;;5054525;28;20131;-78
2023/10/29 00:13:09;;;;;;;14.75;5.70;;;10.70;99.90;;;;;;5054048;28;20143;-77
2023/10/29 00:15:35;;;;;;;8.18;5.10;;;10.80;99.90;;;;;;5053879;28;20048;-77
2023/10/29 00:18:01;;;;;;;9.55;6.10;;;10.80;99.90;;;;;;5054098;28;20056;-77
2023/10/29 00:20:27;;;;;;;9.80;6.35;;;10.80;99.90;;;;;;5054234;28;20105;-77
2023/10/29 00:22:52;;;;;;;9.13;5.15;;;10.80;99.90;;;;;;5053111;28;20052;-78
2023/10/29 00:25:18;;;;;;;9.15;5.10;;;10.70;99.90;;;;;;5070937;28;20519;-78
2023/10/29 00:27:44;;;;;;;9.15;5.38;;;10.80;99.90;;;;;;5070560;28;20044;-77
2023/10/29 00:30:10;;;;;;;7.72;4.45;;;10.80;99.90;;;;;;5054043;28;20055;-78
2023/10/29 00:32:35;;;;;;;6.55;4.78;;;10.80;99.90;;;;;;5054145;28;20093;-77
2023/10/29 00:35:01;;;;;;;8.35;5.43;;;10.80;99.90;;;;;;5054581;28;20123;-77
2023/10/29 00:37:27;;;;;;;9.95;5.68;;;10.90;99.90;;;;;;5047937;28;20056;-77
2023/10/29 00:39:53;;;;;;;8.80;5.45;;;10.90;99.90;;;;;;5074242;28;20051;-78
2023/10/29 00:42:19;;;;;;;11.63;5.20;;;10.90;99.90;;;;;;5073800;28;20043;-77
2023/10/29 00:44:45;;;;;;;7.13;4.97;;;10.90;99.90;;;;;;5057456;28;20178;-77
2023/10/29 00:47:11;;;;;;;7.90;4.40;;;10.90;99.90;;;;;;5057231;28;20150;-77
2023/10/29 00:49:37;;;;;;;8.43;4.55;;;10.80;99.90;;;;;;5073584;28;20055;-77
2023/10/29 00:52:03;;;;;;;6.50;4.32;;;10.90;99.90;;;;;;5069273;28;20071;-78
2023/10/29 00:54:30;;;;;;;8.10;3.97;;;10.90;99.90;;;;;;5053429;28;20044;-78
2023/10/29 00:56:57;;;;;;;8.10;4.25;;;10.90;99.90;;;;;;5053552;28;20051;-78
2023/10/29 00:59:23;;;;;;;7.90;4.18;;;10.90;99.90;;;;;;5053981;28;20110;-78
2023/10/29 01:01:49;;;;;;;8.15;4.40;;;10.90;99.90;;;;;;5053296;28;20044;-77
2023/10/29 01:04:15;;;;;;;9.40;4.70;;;10.90;99.90;;;;;;5053418;28;20411;-78
2023/10/29 01:06:42;;;;;;;8.93;3.92;;;10.90;99.90;;;;;;5053516;28;20106;-77
2023/10/29 01:09:08;;;;;;;6.40;3.60;;;10.90;99.90;;;;;;5053279;28;20052;-77
2023/10/29 01:11:34;;;;;;;8.93;4.30;;;11.00;99.90;;;;;;5053468;28;20040;-77
2023/10/29 01:14:03;;;;;;;8.20;4.55;;;11.00;99.90;;;;;;5050826;28;20399;-77
2023/10/29 01:16:29;;;;;;;6.40;3.75;;;11.00;99.90;;;;;;5041406;28;20062;-77
2023/10/29 01:19:01;;;;;;;6.18;4.10;;;11.00;99.90;;;;;;5053106;28;20462;-78
2023/10/29 01:21:27;;;;;;;6.60;3.92;;;11.00;99.90;;;;;;5054103;28;20044;-77
2023/10/29 01:23:53;;;;;;;6.60;4.28;;;11.00;99.90;;;;;;5055117;28;20143;-78
2023/10/29 01:26:19;;;;;;;6.15;4.07;;;11.10;99.90;;;;;;5057652;28;20094;-77
2023/10/29 01:28:45;;;;;;;7.10;4.05;;;11.00;99.90;;;;;;5056997;28;20044;-77
2023/10/29 01:31:11;;;;;;;6.55;4.10;;;11.10;99.90;;;;;;5056970;28;20131;-77
2023/10/29 01:33:38;;;;;;;6.85;3.90;;;11.10;99.90;;;;;;5057485;28;20053;-78
2023/10/29 01:36:07;;;;;;;10.07;4.13;;;11.10;99.90;;;;;;5056813;28;20060;-77
2023/10/29 01:38:32;;;;;;;6.30;4.90;;;11.20;99.90;;;;;;5057376;28;20044;-78
2023/10/29 01:40:58;;;;;;;8.60;5.38;;;11.10;99.90;;;;;;5057281;28;20479;-78
2023/10/29 01:43:24;;;;;;;6.80;4.65;;;11.20;99.90;;;;;;5057034;28;20044;-76
2023/10/29 01:45:50;;;;;;;8.68;5.05;;;11.20;99.90;;;;;;5056851;28;20045;-77
2023/10/29 01:48:16;;;;;;;10.20;5.65;;;11.20;99.90;;;;;;5056979;28;20048;-77
2023/10/29 01:50:42;;;;;;;7.85;5.10;;;11.20;99.90;;;;;;5057013;28;20048;-77
2023/10/29 01:53:07;;;;;;;8.60;5.85;;;11.30;99.90;;;;;;5056179;28;20041;-77
2023/10/29 01:55:36;;;;;;;8.50;4.97;;;11.30;99.90;;;;;;5056900;28;20051;-77
2023/10/29 01:58:02;;;;;;;7.18;4.53;;;11.30;99.90;;;;;;5056573;28;20041;-76
2023/10/29 02:00:28;;;;;;;9.88;4.03;;;11.40;99.90;;;;;;5056628;28;20057;-76
2023/10/29 02:02:54;;;;;;;9.48;3.78;;;11.50;99.90;;;;;;5056829;28;20084;-77
2023/10/29 02:05:19;;;;;;;8.57;4.43;;;11.50;99.90;;;;;;5040280;28;20040;-77
2023/10/29 02:07:45;;;;;;;9.93;4.53;;;11.60;99.90;;;;;;5056024;28;20040;-77
2023/10/29 02:10:11;;;;;;;8.45;4.53;;;11.60;99.90;;;;;;5056859;28;20472;-77
2023/10/29 02:12:37;;;;;;;7.20;4.03;;;11.60;99.90;;;;;;5056164;28;20047;-77
2023/10/29 02:15:04;;;;;;;6.50;4.38;;;11.70;99.90;;;;;;5056574;28;20496;-76
2023/10/29 02:17:30;;;;;;;7.10;3.83;;;11.70;99.90;;;;;;5056625;28;20128;-77
2023/10/29 02:19:56;;;;;;;7.70;3.85;;;11.70;99.90;;;;;;5056053;28;20056;-77
2023/10/29 02:22:27;;;;;;;8.20;4.00;;;11.70;99.90;;;;;;5055572;28;20041;-76
2023/10/29 02:24:53;;;;;;;7.90;4.32;;;11.70;99.90;;;;;;5056161;28;20056;-77
2023/10/29 02:27:19;;;;;;;6.47;3.70;;;11.70;99.90;;;;;;5056489;28;20175;-77
2023/10/29 02:29:45;;;;;;;8.85;3.58;;;11.80;99.90;;;;;;5055935;28;20131;-77
2023/10/29 02:32:11;;;;;;;7.25;3.40;;;11.70;99.90;;;;;;5039735;28;20400;-77
2023/10/29 02:34:36;;;;;;;8.25;3.58;;;11.70;99.90;;;;;;5037867;28;20134;-77
2023/10/29 02:37:02;;;;;;;4.95;2.83;;;11.80;99.90;;;;;;5064005;28;20048;-77
2023/10/29 02:39:27;;;;;;;5.90;2.72;;;11.70;99.90;;;;;;5075910;28;20051;-78
2023/10/29 02:41:53;;;;;;;5.78;2.63;;;11.70;99.90;;;;;;5076224;28;20044;-77
2023/10/29 02:44:19;;;;;;;5.80;2.60;;;11.70;99.90;;;;;;5076179;28;20101;-77
2023/10/29 02:46:45;;;;;;;8.07;2.30;;;11.70;99.90;;;;;;5075966;28;20044;-76
2023/10/29 02:49:11;;;;;;;5.32;2.58;;;11.70;99.90;;;;;;5075973;28;20091;-76
2023/10/29 02:51:36;;;;;;;7.32;2.83;;;11.70;99.90;;;;;;5072810;28;20059;-77
2023/10/29 02:54:02;;;;;;;8.68;2.70;;;11.70;99.90;;;;;;5055093;28;20048;-76
2023/10/29 02:56:28;;;;;;;7.18;3.10;;;11.70;99.90;;;;;;5055993;28;20048;-77
2023/10/29 02:58:54;;;;;;;7.57;2.10;;;11.70;99.90;;;;;;5055697;28;20049;-77
2023/10/29 03:01:20;;;;;;;8.52;3.00;;;11.70;99.90;;;;;;5055657;28;20526;-76
2023/10/29 03:03:46;;;;;;;5.00;2.33;;;11.70;99.90;;;;;;5055477;28;20102;-77
2023/10/29 03:06:12;;;;;;;8.73;2.58;;;11.70;99.90;;;;;;5055486;28;20462;-77
2023/10/29 03:08:38;;;;;;;6.68;2.17;;;11.70;99.90;;;;;;5054121;28;20080;-77
2023/10/29 03:11:03;;;;;;;6.63;2.30;;;11.70;99.90;;;;;;5055365;28;20056;-77
2023/10/29 03:13:29;;;;;;;7.50;2.30;;;11.70;99.90;;;;;;5055288;28;20407;-76
2023/10/29 03:15:56;;;;;;;6.30;2.20;;;11.70;99.90;;;;;;5055234;28;20052;-76
2023/10/29 03:18:22;;;;;;;6.20;2.20;;;11.70;99.90;;;;;;5055343;28;20049;-77
2023/10/29 03:20:48;;;;;;;4.50;1.85;;;11.70;99.90;;;;;;5049577;28;20504;-77
2023/10/29 03:23:14;;;;;;;6.20;2.13;;;11.70;99.90;;;;;;5050472;28;20111;-77
2023/10/29 03:25:40;;;;;;;6.50;2.20;;;11.70;99.90;;;;;;5054874;28;20082;-77
2023/10/29 03:28:06;;;;;;;3.95;2.20;;;11.70;99.90;;;;;;5055154;28;20043;-77
2023/10/29 03:30:31;;;;;;;6.25;2.10;;;11.70;99.90;;;;;;5055087;28;20048;-77
2023/10/29 03:32:57;;;;;;;6.97;2.00;;;11.70;99.90;;;;;;5055249;28;20471;-77
2023/10/29 03:35:26;;;;;;;3.42;1.30;;;11.70;99.90;;;;;;5054926;28;20052;-77
2023/10/29 03:37:51;;;;;;;5.40;1.80;;;11.70;99.90;;;;;;5054808;28;20102;-77
2023/10/29 03:40:17;;;;;;;5.28;1.95;;;11.80;99.90;;;;;;5055148;28;20044;-77
2023/10/29 03:42:42;;;;;;;5.13;1.42;;;11.80;99.90;;;;;;5054444;28;20121;-77
2023/10/29 03:45:08;;;;;;;3.60;1.25;;;11.80;99.90;;;;;;5054389;28;20052;-77
2023/10/29 03:47:34;;;;;;;4.50;1.55;;;11.80;99.90;;;;;;5054977;28;20059;-77
2023/10/29 03:50:00;;;;;;;4.93;1.52;;;11.90;99.90;;;;;;5054218;28;20040;-76
2023/10/29 03:52:25;;;;;;;2.78;1.45;;;11.90;99.90;;;;;;5054368;28;20044;-77
2023/10/29 03:54:51;;;;;;;6.32;1.80;;;11.90;99.90;;;;;;5054976;28;20076;-76
2023/10/29 03:57:17;;;;;;;16.38;1.70;;;11.90;99.90;;;;;;5054497;28;20061;-76
2023/10/29 03:59:43;;;;;;;3.78;1.42;;;11.90;99.90;;;;;;5054746;28;20044;-77
2023/10/29 04:02:09;;;;;;;5.20;1.73;;;11.90;99.90;;;;;;5054136;28;20129;-77
2023/10/29 04:04:35;;;;;;;7.43;1.20;;;11.90;99.90;;;;;;5054275;28;20080;-76
2023/10/29 04:07:02;;;;;;;4.03;1.33;;;12.00;99.90;;;;;;5053883;28;20090;-77
2023/10/29 04:09:28;;;;;;;5.20;1.60;;;12.00;99.90;;;;;;5054055;28;20056;-78
2023/10/29 04:11:54;;;;;;;6.18;1.50;;;12.00;99.90;;;;;;5053844;28;20434;-76
2023/10/29 04:14:20;;;;;;;3.50;1.70;;;12.00;99.90;;;;;;5054145;28;20055;-76
2023/10/29 04:16:46;;;;;;;4.40;1.30;;;12.00;99.90;;;;;;5054669;28;20084;-77
2023/10/29 04:19:11;;;;;;;6.25;1.30;;;12.10;99.90;;;;;;5054390;28;20537;-77
2023/10/29 04:21:37;;;;;;;4.47;1.38;;;12.10;99.90;;;;;;5053717;28;20080;-77
2023/10/29 04:24:03;;;;;;;3.20;1.30;;;12.20;99.90;;;;;;5061080;28;20503;-77
2023/10/29 04:26:29;;;;;;;2.72;1.20;;;12.20;99.90;;;;;;5053967;28;20043;-76
2023/10/29 04:28:54;;;;;;;3.63;1.17;;;12.20;99.90;;;;;;5054048;28;20041;-77
2023/10/29 04:31:20;;;;;;;5.88;1.13;;;12.20;99.90;;;;;;5053823;28;20044;-77
2023/10/29 04:33:48;;;;;;;3.33;1.20;;;12.20;99.90;;;;;;5054345;28;20631;-77
2023/10/29 04:36:24;;;;;;;3.40;0.90;;;12.30;99.90;;;;;;5059374;28;20048;-77
2023/10/29 04:38:51;;;;;;;3.95;1.02;;;12.30;99.90;;;;;;5071487;28;20482;-77
2023/10/29 04:41:17;;;;;;;2.30;0.80;;;12.40;99.90;;;;;;5074099;28;20086;-77
2023/10/29 04:43:43;;;;;;;3.90;0.88;;;12.40;99.90;;;;;;5074122;28;20142;-76
2023/10/29 04:46:10;;;;;;;4.03;1.05;;;12.40;99.90;;;;;;5074177;28;20127;-77
2023/10/29 04:48:37;;;;;;;3.50;0.95;;;12.40;99.90;;;;;;5074223;28;20052;-77
2023/10/29 04:51:06;;;;;;;6.70;1.13;;;12.40;99.90;;;;;;5091939;28;20059;-78
2023/10/29 04:53:32;;;;;;;5.32;1.23;;;12.50;99.90;;;;;;5073830;28;20126;-77
2023/10/29 04:55:58;;;;;;;5.28;1.30;;;12.50;99.90;;;;;;5073022;28;20048;-78
2023/10/29 04:58:23;;;;;;;7.57;1.25;;;12.40;99.90;;;;;;5073685;28;20096;-77
2023/10/29 05:00:49;;;;;;;4.88;1.15;;;12.40;99.90;;;;;;5073681;28;20040;-77
2023/10/29 05:03:15;;;;;;;3.33;0.90;;;12.40;99.90;;;;;;5073745;28;20507;-77
2023/10/29 05:05:41;;;;;;;5.30;1.10;;;12.40;99.90;;;;;;5073617;28;20095;-77
2023/10/29 05:08:06;;;;;;;7.30;0.80;;;12.30;99.90;;;;;;5061249;28;20456;-77
2023/10/29 05:10:32;;;;;;;3.13;0.80;;;12.30;99.90;;;;;;5053848;28;20083;-77
2023/10/29 05:12:58;;;;;;;1.73;0.60;;;12.30;99.90;;;;;;5053487;28;20082;-77
2023/10/29 05:15:23;;;;;;;3.38;0.70;;;12.30;99.90;;;;;;5053460;28;20140;-77
2023/10/29 05:17:49;;;;;;;0.95;0.40;;;12.20;99.90;;;;;;5053728;28;20109;-77
2023/10/29 05:20:15;;;;;;;6.00;0.73;;;12.10;99.90;;;;;;5050278;28;20049;-77
2023/10/29 05:22:41;;;;;;;3.33;0.65;;;12.10;99.90;;;;;;5044539;28;20532;-77
2023/10/29 05:25:07;;;;;;;2.33;0.80;;;12.00;99.90;;;;;;5057105;28;20080;-77
2023/10/29 05:27:33;;;;;;;2.03;0.40;;;12.00;99.90;;;;;;5053371;28;20131;-78
2023/10/29 05:29:59;;;;;;;2.08;0.60;;;11.90;99.90;;;;;;5053717;28;20187;-77
2023/10/29 05:32:26;;;;;;;5.18;0.60;;;11.90;99.90;;;;;;5053073;28;20041;-78
2023/10/29 05:34:52;;;;;;;6.40;0.60;;;11.90;99.90;;;;;;5053105;28;20049;-77
2023/10/29 05:37:17;;;;;;;2.25;0.40;;;11.80;99.90;;;;;;5053394;28;20067;-77
2023/10/29 05:39:43;;;;;;;1.88;0.50;;;11.80;99.90;;;;;;5036894;28;20049;-77
2023/10/29 05:42:09;;;;;;;2.72;0.50;;;11.70;99.90;;;;;;5052931;28;20036;-78
2023/10/29 05:44:34;;;;;;;3.13;0.70;;;11.70;99.90;;;;;;5052857;28;20408;-77
2023/10/29 05:47:00;;;;;;;6.50;0.60;;;11.70;99.90;;;;;;5053555;28;20048;-77
2023/10/29 05:49:26;;;;;;;2.35;0.60;;;11.60;99.90;;;;;;5052980;28;20051;-77
2023/10/29 05:51:51;;;;;;;3.28;0.73;;;11.70;99.90;;;;;;5053156;28;20052;-77
2023/10/29 05:54:18;;;;;;;5.65;0.88;;;11.70;99.90;;;;;;5052976;28;20052;-77
2023/10/29 05:56:45;;;;;;;6.65;0.90;;;11.70;99.90;;;;;;5070852;28;20082;-77
2023/10/29 05:59:11;;;;;;;3.42;0.80;;;11.70;99.90;;;;;;5053164;28;20048;-77
2023/10/29 06:01:38;;;;;;;8.30;1.00;;;11.80;99.90;;;;;;5053219;28;20484;-77
2023/10/29 06:04:04;;;;;;;2.55;0.60;;;11.70;99.90;;;;;;5052835;28;20045;-77
2023/10/29 06:06:30;;;;;;;2.75;0.75;;;11.80;99.90;;;;;;5053129;28;20044;-77
2023/10/29 06:08:56;;;;;;;2.88;1.02;;;11.80;99.90;;;;;;5055989;28;20385;-77
2023/10/29 06:11:21;;;;;;;2.03;0.70;;;11.70;99.90;;;;;;5056416;28;20139;-77
2023/10/29 06:13:47;;;;;;;1.73;0.88;;;11.80;99.90;;;;;;5056472;28;20044;-77
2023/10/29 06:16:14;;;;;;;3.78;0.70;;;11.80;99.90;;;;;;5056125;28;20082;-77
2023/10/29 06:18:39;;;;;;;4.32;0.85;;;11.80;99.90;;;;;;5052630;28;20106;-77
2023/10/29 06:21:05;;;;;;;4.45;0.90;;;11.80;99.90;;;;;;5043557;28;20435;-77
2023/10/29 06:23:31;;;;;;;3.28;0.88;;;11.80;99.90;;;;;;5056110;28;20040;-77
2023/10/29 06:25:56;;;;;;;2.38;0.70;;;11.80;99.90;;;;;;5056235;28;20052;-77
2023/10/29 06:28:22;;;;;;;3.70;0.90;;;11.90;99.90;;;;;;5056108;28;20045;-77
2023/10/29 06:30:48;;;;;;;4.65;1.60;;;11.90;99.90;;;;;;5056325;28;20053;-77
2023/10/29 06:33:13;;;;;;;5.30;0.70;;;11.90;99.90;;;;;;5039820;28;20048;-77
2023/10/29 06:35:40;;;;;;;2.72;0.70;;;12.00;99.90;;;;;;5061283;28;20521;-77
2023/10/29 06:38:06;;;;;;;3.22;0.75;;;12.00;99.90;;;;;;5058094;28;20407;-77
2023/10/29 06:40:32;;;;;;;4.85;0.70;;;12.00;99.90;;;;;;5056443;28;20043;-76
2023/10/29 06:42:57;;;;;;;4.07;0.73;;;12.10;99.90;;;;;;5055193;28;20052;-76
2023/10/29 06:45:23;;;;;;;4.35;0.60;;;12.10;99.90;;;;;;5055735;28;20064;-76
2023/10/29 06:47:49;;;;;;;3.15;0.63;;;12.10;99.90;;;;;;5055956;28;20045;-77
2023/10/29 06:50:15;;;;;;;4.07;1.17;;;12.20;99.90;;;;;;5055670;28;20507;-77
2023/10/29 06:52:41;;;;;;;3.83;0.60;;;12.20;99.90;;;;;;5055515;28;20051;-77
2023/10/29 06:55:08;;;;;;;2.03;0.88;;;12.20;99.90;;;;;;5055922;28;20423;-77
2023/10/29 06:57:36;;;;;;;5.18;2.28;;;12.20;99.90;;;;;;5055249;28;20518;-77
2023/10/29 07:00:01;;;;;;;5.88;2.28;;;12.20;99.90;;;;;;5054860;28;20496;-77
2023/10/29 07:02:27;;;;;;;5.78;3.58;;;12.20;99.90;;;;;;5055298;28;20132;-77
2023/10/29 07:04:53;;;;;;;5.97;3.08;;;12.30;99.90;;;;;;5055370;28;20048;-76
2023/10/29 07:07:18;;;;;;;4.35;1.73;;;12.20;99.90;;;;;;5055824;28;20048;-77
2023/10/29 07:09:44;;;;;;;3.95;1.02;;;12.20;99.90;;;;;;5055718;28;20040;-77
2023/10/29 07:12:10;;;;;;;7.72;2.20;;;12.20;99.90;;;;;;5055509;28;20170;-77
2023/10/29 07:14:36;;;;;;;8.15;3.17;;;12.20;99.90;;;;;;5055333;28;20514;-77
2023/10/29 07:17:01;;;;;;;3.80;1.73;;;12.20;99.90;;;;;;5055527;28;20045;-76
2023/10/29 07:19:27;;;;;;;3.88;0.70;;;12.20;99.90;;;;;;5054369;28;20063;-77
2023/10/29 07:21:52;;;;;;;5.35;1.92;;;12.30;99.90;;;;;;5049214;28;20106;-77
2023/10/29 07:24:18;;;;;;;3.40;1.13;;;12.30;99.90;;;;;;5049281;28;20052;-77
2023/10/29 07:26:44;;;;;;;3.25;0.80;;;12.30;99.90;;;;;;5049297;28;20033;-77
2023/10/29 07:29:11;;;;;;;5.68;0.98;;;12.40;99.90;;;;;;5055236;28;20040;-77
2023/10/29 07:31:38;;;;;;;4.78;0.88;;;12.40;99.90;;;;;;5054976;28;20052;-77
2023/10/29 07:34:04;;;;;;;4.25;1.52;;;12.40;99.90;;;;;;5054666;28;20160;-76
2023/10/29 07:36:30;;;;;;;6.05;1.50;;;12.40;99.90;;;;;;5055373;28;20119;-77
2023/10/29 07:38:55;;;;;;;7.18;1.00;;;12.50;99.90;;;;;;5054894;28;20044;-76
2023/10/29 07:41:22;;;;;;;8.70;1.48;;;12.50;99.90;;;;;;5054771;28;20036;-76
2023/10/29 07:43:48;;;;;;;3.05;0.60;;;12.50;99.90;;;;;;5054761;28;20048;-76
2023/10/29 07:46:14;;;;;;;4.43;0.70;;;12.50;99.90;;;;;;5054760;28;20083;-76
2023/10/29 07:48:40;;;;;;;5.43;0.90;;;12.50;99.90;;;;;;5054164;28;20038;-77
2023/10/29 07:51:07;;;;;;;5.47;0.80;;;12.50;99.90;;;;;;5054831;28;20051;-77
2023/10/29 07:53:33;;;;;;;2.17;0.82;;;12.50;99.90;;;;;;5054991;28;20040;-77
2023/10/29 07:56:13;;;;;;;3.47;0.70;;;12.50;99.90;;;;;;5054467;28;20041;-77
2023/10/29 07:58:39;;;;;;;2.42;0.63;;;12.60;99.90;;;;;;5054232;28;20059;-76
2023/10/29 08:01:11;;;;;;;2.70;0.98;;;12.50;99.90;;;;;;5054397;28;20040;-77
2023/10/29 08:03:39;;;;;;;5.22;1.35;;;12.50;99.90;;;;;;5054700;28;20056;-76
2023/10/29 08:06:05;;;;;;;4.78;0.70;;;12.60;99.90;;;;;;5054541;28;20045;-76
2023/10/29 08:08:31;;;;;;;4.43;0.73;;;12.60;99.90;;;;;;5054311;28;20127;-77
2023/10/29 08:10:56;;;;;;;4.22;0.70;;;12.50;99.90;;;;;;5054343;28;20131;-76
2023/10/29 08:13:22;;;;;;;4.88;0.70;;;12.50;99.90;;;;;;5054296;28;20044;-76
2023/10/29 08:15:47;;;;;;;5.75;0.80;;;12.50;99.90;;;;;;5047384;28;20115;-76
2023/10/29 08:18:14;;;;;;;6.60;0.80;;;12.50;99.90;;;;;;5031299;28;20061;-76
2023/10/29 08:20:41;;;;;;;3.72;0.70;;;12.50;99.90;;;;;;5030857;28;20056;-76
2023/10/29 08:23:06;;;;;;;5.90;0.98;;;12.40;99.90;;;;;;5023651;28;20041;-76
2023/10/29 08:25:35;;;;;;;4.60;0.77;;;12.50;99.90;;;;;;5031023;28;20041;-76
2023/10/29 08:28:00;;;;;;;6.25;0.80;;;12.40;99.90;;;;;;5030370;28;20053;-76
2023/10/29 08:30:26;;;;;;;5.15;0.75;;;12.40;99.90;;;;;;5030117;28;20050;-76
2023/10/29 08:32:52;;;;;;;5.78;0.80;;;12.50;99.90;;;;;;5040860;28;20091;-76
2023/10/29 08:35:17;;;;;;;3.70;0.90;;;12.40;99.90;;;;;;5031093;28;20160;-76
2023/10/29 08:37:43;;;;;;;8.65;0.88;;;12.40;99.90;;;;;;5030991;28;20162;-77
2023/10/29 08:40:09;;;;;;;8.32;1.00;;;12.40;99.90;;;;;;5030438;28;20128;-76
2023/10/29 08:42:36;;;;;;;4.68;0.73;;;12.50;99.90;;;;;;5030618;28;20041;-76
2023/10/29 08:45:01;;;;;;;5.07;0.70;;;12.50;99.90;;;;;;5030113;28;20049;-77
2023/10/29 08:47:27;;;;;;;5.55;1.17;;;12.50;99.90;;;;;;5030936;28;20052;-76
2023/10/29 08:49:53;;;;;;;5.47;0.82;;;12.50;99.90;;;;;;5030503;28;20112;-76
2023/10/29 08:52:18;;;;;;;7.38;1.65;;;12.50;99.90;;;;;;5030515;28;20092;-76
2023/10/29 08:54:45;;;;;;;4.13;0.93;;;12.50;99.90;;;;;;5029986;28;20048;-76
2023/10/29 08:57:10;;;;;;;6.68;0.70;;;12.50;99.90;;;;;;5014194;28;20080;-76
2023/10/29 08:59:36;;;;;;;4.22;0.90;;;12.50;99.90;;;;;;5030433;28;20535;-76
2023/10/29 09:02:02;;;;;;;5.20;1.08;;;12.50;99.90;;;;;;5030189;28;20415;-76
2023/10/29 09:04:28;;;;;;;5.10;0.85;;;12.50;99.90;;;;;;5030071;28;20464;-76
2023/10/29 09:06:53;;;;;;;5.10;0.82;;;12.50;99.90;;;;;;5030252;28;20063;-76
2023/10/29 09:09:19;;;;;;;7.32;2.50;;;12.60;99.90;;;;;;5030437;28;20434;-76
2023/10/29 09:11:46;;;;;;;5.30;0.77;;;12.70;99.90;;;;;;5030585;28;20045;-76
2023/10/29 09:14:13;;;;;;;3.05;0.70;;;12.70;99.90;;;;;;5030509;28;20180;-76
2023/10/29 09:16:44;;;;;;;7.88;2.20;;;12.80;99.90;;;;;;5028379;28;20087;-76
2023/10/29 09:19:09;;;;;;;5.30;0.98;;;12.90;99.90;;;;;;5052845;28;20049;-76
2023/10/29 09:21:35;;;;;;;5.63;0.82;;;13.00;99.90;;;;;;5053405;28;20450;-76
2023/10/29 09:24:02;;;;;;;14.90;3.97;;;13.00;99.90;;;;;;5053169;28;20052;-76
2023/10/29 09:26:27;;;;;;;8.27;1.70;;;13.10;99.90;;;;;;5053120;28;20500;-76
2023/10/29 09:28:53;;;;;;;6.30;1.50;;;13.10;99.90;;;;;;5047605;28;20055;-77
2023/10/29 09:31:19;;;;;;;6.75;1.17;;;13.10;99.90;;;;;;5033491;28;20041;-76
2023/10/29 09:33:45;;;;;;;5.32;1.40;;;13.20;99.90;;;;;;5033507;28;20053;-76
2023/10/29 09:36:11;;;;;;;3.72;0.60;;;13.20;99.90;;;;;;5033795;28;20049;-76
2023/10/29 09:38:36;;;;;;;6.30;1.33;;;13.30;99.90;;;;;;5033824;28;20060;-76
2023/10/29 09:41:02;;;;;;;6.15;0.68;;;13.30;99.90;;;;;;5053264;28;20045;-76
2023/10/29 09:43:36;;;;;;;5.10;1.48;;;13.30;99.90;;;;;;5055847;28;20486;-76
2023/10/29 09:46:05;;;;;;;6.13;0.90;;;13.30;99.90;;;;;;5075162;28;20048;-76
2023/10/29 09:48:32;;;;;;;3.83;0.80;;;13.30;99.90;;;;;;5056513;28;20056;-76
2023/10/29 09:51:00;;;;;;;4.03;0.88;;;13.30;99.90;;;;;;5057432;28;20054;-77
2023/10/29 09:53:28;;;;;;;5.10;1.15;;;13.30;99.90;;;;;;5056849;28;20118;-76
2023/10/29 09:55:54;;;;;;;5.03;1.00;;;13.40;99.90;;;;;;5057182;28;20113;-77
2023/10/29 09:58:23;;;;;;;4.97;1.20;;;13.50;99.90;;;;;;5052082;28;20047;-76
2023/10/29 10:00:49;;;;;;;11.68;2.53;;;13.60;99.90;;;;;;5045153;28;20053;-76
2023/10/29 10:03:16;;;;;;;5.40;1.00;;;13.70;99.90;;;;;;5044228;28;20074;-77
2023/10/29 10:05:42;;;;;;;6.88;1.00;;;13.70;99.90;;;;;;5044575;28;20036;-76
2023/10/29 10:08:09;;;;;;;4.80;1.02;;;13.80;99.90;;;;;;5037087;28;20056;-76
2023/10/29 10:10:42;;;;;;;4.07;0.95;;;13.90;99.90;;;;;;5056578;28;20078;-76
2023/10/29 10:13:08;;;;;;;5.07;0.93;;;14.00;99.90;;;;;;5056679;28;20060;-77
2023/10/29 10:15:35;;;;;;;5.18;1.15;;;14.00;99.90;;;;;;5055787;28;20475;-77
2023/10/29 10:18:06;;;;;;;6.03;1.15;;;14.10;99.90;;;;;;5056991;28;20059;-76
2023/10/29 10:20:35;;;;;;;3.63;1.13;;;14.10;99.90;;;;;;5056736;28;20080;-76
2023/10/29 10:23:10;;;;;;;5.30;1.42;;;14.20;99.90;;;;;;5039089;28;20041;-77
2023/10/29 10:25:37;;;;;;;4.65;1.20;;;14.40;99.90;;;;;;5073462;28;20049;-76
2023/10/29 10:28:03;;;;;;;3.78;0.98;;;14.40;99.90;;;;;;5068030;28;20074;-77
2023/10/29 10:30:34;;;;;;;5.60;0.90;;;14.50;99.90;;;;;;5056045;28;20463;-77
2023/10/29 10:33:09;;;;;;;6.22;1.27;;;14.50;99.90;;;;;;5055892;28;20403;-77
2023/10/29 10:35:43;;;;;;;8.75;1.60;;;14.60;99.90;;;;;;5057175;28;20454;-77
2023/10/29 10:38:09;;;;;;;4.50;0.90;;;14.60;99.90;;;;;;5055885;28;20127;-77
2023/10/29 10:40:34;;;;;;;6.72;1.42;;;14.40;99.90;;;;;;5056415;28;20131;-76
2023/10/29 10:43:01;;;;;;;6.10;1.50;;;14.30;99.90;;;;;;5055769;28;20558;-76
2023/10/29 10:45:30;;;;;;;8.85;1.10;;;14.20;99.90;;;;;;5055887;28;20439;-76
2023/10/29 10:47:58;;;;;;;11.80;1.30;;;14.10;99.90;;;;;;5055894;28;20080;-76
2023/10/29 10:50:27;;;;;;;8.95;1.27;;;14.00;99.90;;;;;;5055860;28;20526;-77
2023/10/29 10:52:54;;;;;;;4.28;1.42;;;14.00;99.90;;;;;;5056521;28;20075;-76
2023/10/29 10:55:22;;;;;;;3.65;1.00;;;13.90;99.90;;;;;;5055001;28;20045;-76
2023/10/29 10:57:49;;;;;;;6.15;1.27;;;14.00;99.90;;;;;;5055891;28;20131;-76
2023/10/29 11:00:16;;;;;;;5.90;1.23;;;14.00;99.90;;;;;;5056121;28;20142;-76
2023/10/29 11:02:43;;;;;;;4.28;1.13;;;14.00;99.90;;;;;;5055355;28;20082;-76
2023/10/29 11:05:15;;;;;;;6.07;1.52;;;14.00;99.90;;;;;;5055730;28;20052;-76
2023/10/29 11:07:42;;;;;;;9.20;1.42;;;14.10;99.90;;;;;;5055417;28;20052;-76
2023/10/29 11:10:12;;;;;;;3.88;1.00;;;14.10;99.90;;;;;;5052890;28;20600;-77
2023/10/29 11:12:39;;;;;;;7.22;1.50;;;14.00;99.90;;;;;;5047563;28;20061;-77
2023/10/29 11:15:19;;;;;;;8.90;1.65;;;14.00;99.90;;;;;;5036270;28;20049;-76
2023/10/29 11:18:01;;;;;;;8.65;1.50;;;14.00;99.90;;;;;;5055371;28;20124;-76
2023/10/29 11:20:54;;;;;;;7.93;1.23;;;14.00;99.90;;;;;;5055133;28;20040;-76
2023/10/29 11:23:30;;;;;;;6.72;1.58;;;14.00;99.90;;;;;;5061872;28;20127;-76
2023/10/29 11:26:19;;;;;;;7.13;1.85;;;14.10;99.90;;;;;;5060284;28;20074;-76
2023/10/29 11:28:45;;;;;;;9.20;1.13;;;14.20;99.90;;;;;;5045724;28;20127;-76
2023/10/29 11:31:13;;;;;;;8.93;1.30;;;14.30;99.90;;;;;;5051227;28;20084;-76
2023/10/29 11:33:40;;;;;;;5.60;1.08;;;14.40;99.90;;;;;;5055038;28;20087;-76
2023/10/29 11:36:34;;;;;;;9.05;1.40;;;14.50;99.90;;;;;;5054827;28;20412;-76
2023/10/29 11:39:15;;;;;;;7.47;1.77;;;14.50;99.90;;;;;;5055243;28;20047;-76
2023/10/29 11:41:42;;;;;;;5.00;1.13;;;14.60;99.90;;;;;;5054886;28;20048;-76
2023/10/29 11:44:20;;;;;;;9.05;1.20;;;14.70;99.90;;;;;;5054462;28;20508;-76
2023/10/29 11:46:57;;;;;;;6.97;1.58;;;14.60;99.90;;;;;;5055031;28;20048;-77
2023/10/29 11:49:24;;;;;;;5.75;1.30;;;14.60;99.90;;;;;;5054740;28;20048;-77
2023/10/29 11:51:54;;;;;;;6.07;1.20;;;14.60;99.90;;;;;;5054763;28;20522;-76
2023/10/29 11:54:20;;;;;;;8.30;1.20;;;14.50;99.90;;;;;;5054725;28;20052;-77
2023/10/29 11:56:48;;;;;;;8.18;1.70;;;14.40;99.90;;;;;;5054296;28;20048;-76
2023/10/29 11:59:13;;;;;;;7.07;1.40;;;14.40;99.90;;;;;;5054286;28;20048;-77
2023/10/29 12:01:41;;;;;;;7.57;1.40;;;14.40;99.90;;;;;;5054661;28;20051;-77
2023/10/29 12:04:09;;;;;;;7.93;1.08;;;14.40;99.90;;;;;;5054337;28;20056;-76
2023/10/29 12:06:38;;;;;;;10.75;1.80;;;14.30;99.90;;;;;;5038062;28;20114;-76
2023/10/29 12:09:14;;;;;;;4.20;0.88;;;14.30;99.90;;;;;;5034860;28;20055;-76
2023/10/29 12:11:39;;;;;;;7.43;1.40;;;14.30;99.90;;;;;;5034455;28;20111;-76
2023/10/29 12:14:05;;;;;;;8.63;1.40;;;14.30;99.90;;;;;;5034487;28;20056;-77
2023/10/29 12:16:31;;;;;;;7.82;2.13;;;14.20;99.90;;;;;;5050034;28;20063;-76
2023/10/29 12:18:56;;;;;;;6.38;1.60;;;14.20;99.90;;;;;;5054104;28;20048;-76
2023/10/29 12:21:22;;;;;;;7.00;2.17;;;14.30;99.90;;;;;;5053983;28;20463;-77
2023/10/29 12:23:49;;;;;;;6.47;1.65;;;14.30;99.90;;;;;;5053650;28;20060;-76
2023/10/29 12:26:15;;;;;;;8.32;1.33;;;14.30;99.90;;;;;;5058863;28;20522;-77
2023/10/29 12:28:42;;;;;;;7.57;1.60;;;14.30;99.90;;;;;;5064132;28;20158;-77
2023/10/29 12:31:24;;;;;;;8.88;1.80;;;14.30;99.90;;;;;;5054080;28;20060;-77
2023/10/29 12:33:57;;;;;;;6.68;1.02;;;14.40;99.90;;;;;;5053797;28;20048;-77
2023/10/29 12:36:24;;;;;;;10.25;1.35;;;14.30;99.90;;;;;;5053920;28;20048;-78
2023/10/29 12:38:50;;;;;;;11.10;1.65;;;14.30;99.90;;;;;;5053972;28;20052;-77
2023/10/29 12:41:17;;;;;;;10.00;1.55;;;14.30;99.90;;;;;;5053839;28;20238;-76
2023/10/29 12:43:54;;;;;;;5.75;1.80;;;14.30;99.90;;;;;;5053719;28;20052;-76